Aruana, Brazil
Current Conditions -  °F | °C
As of 9:00 AM on Monday 20 Oct 2014 (Local Time) from SBAN Reporting Station
Clear Clear  
Wind Chill: 75°   Ceiling: Unl
Heat Index: 75°   Visibility: 6mi
Dew Point: 59°   Wind: 20mph
Humidity: 57%   Direction: 210°SSW
Pressure: 30.15"   Gusts: NA
Location:  14.92°S, 51.08°W
Report Text: SBAN 201200Z 21017KT CAVOK 24/15 Q1021
Loading
Personal Weather Stations






























Interactive Weather Map
Tropical Storm Tracking
New forecast layout! Learn more

10-Day Weather Forecast

Advertisements
Track Severe Weather on mobile